Time;durP1;ratioP1;P1;durP2;ratioP2;P2;SDS_P1;SDS_P2;PMS_P1;PMS_P2;Temp;Humidity;BMP_temperature;BMP_pressure;BME280_temperature;BME280_humidity;BME280_pressure;Samples;Min_cycle;Max_cycle;Signal;HPM_P1;HPM_P2
2021/09/04 00:01:02;;;;;;;16.50;8.83;;;;;;;11.63;100.00;93969.69;5055284;28;20726;-79
2021/09/04 00:03:30;;;;;;;13.70;7.60;;;;;;;11.69;100.00;93963.66;5055435;28;20206;-79
2021/09/04 00:05:56;;;;;;;16.03;7.47;;;;;;;11.60;100.00;93964.88;5055244;28;20202;-79
2021/09/04 00:08:23;;;;;;;12.63;7.67;;;;;;;11.70;100.00;93964.47;5055295;28;20245;-79
2021/09/04 00:10:49;;;;;;;14.67;7.70;;;;;;;11.66;100.00;93956.22;5055207;28;20219;-78
2021/09/04 00:13:15;;;;;;;13.10;7.57;;;;;;;11.67;100.00;93963.03;5055072;28;20203;-78
2021/09/04 00:15:42;;;;;;;13.97;7.27;;;;;;;11.68;100.00;93953.41;5055335;28;20215;-79
2021/09/04 00:18:08;;;;;;;10.67;7.07;;;;;;;11.66;100.00;93959.63;5054933;28;20203;-78
2021/09/04 00:20:36;;;;;;;14.63;7.27;;;;;;;11.66;100.00;93958.84;5055077;28;20587;-77
2021/09/04 00:23:03;;;;;;;14.07;6.90;;;;;;;11.65;100.00;93951.97;5054887;28;20203;-77
2021/09/04 00:25:29;;;;;;;14.10;7.40;;;;;;;11.54;100.00;93953.41;5054857;28;20658;-78
2021/09/04 00:27:56;;;;;;;14.90;6.90;;;;;;;11.59;100.00;93953.59;5054383;28;20206;-78
2021/09/04 00:30:22;;;;;;;14.10;7.10;;;;;;;11.54;100.00;93949.97;5055035;28;20210;-78
2021/09/04 00:32:49;;;;;;;12.43;6.83;;;;;;;11.50;100.00;93948.78;5054893;28;20206;-78
2021/09/04 00:35:15;;;;;;;12.77;7.13;;;;;;;11.30;100.00;93949.56;5054896;28;20203;-80
2021/09/04 00:37:43;;;;;;;12.50;6.80;;;;;;;11.17;100.00;93946.94;5054553;28;20214;-80
2021/09/04 00:40:11;;;;;;;13.00;7.33;;;;;;;11.13;100.00;93945.75;5054678;28;20230;-80
2021/09/04 00:42:39;;;;;;;14.83;7.33;;;;;;;11.09;100.00;93948.75;5053853;28;20199;-79
2021/09/04 00:45:07;;;;;;;13.57;7.30;;;;;;;11.09;100.00;93943.53;5054563;28;20237;-78
2021/09/04 00:47:33;;;;;;;15.47;8.07;;;;;;;11.10;100.00;93945.13;5071279;28;20195;-80
2021/09/04 00:50:00;;;;;;;14.83;7.23;;;;;;;11.12;100.00;93947.53;5074552;28;20293;-79
2021/09/04 00:52:26;;;;;;;13.27;7.50;;;;;;;11.14;100.00;93944.72;5074377;28;20205;-79
2021/09/04 00:54:54;;;;;;;10.37;7.17;;;;;;;11.21;100.00;93937.72;5074222;28;20722;-79
2021/09/04 00:57:24;;;;;;;13.77;7.27;;;;;;;11.23;100.00;93939.13;5074500;28;20198;-80
2021/09/04 00:59:51;;;;;;;15.07;7.50;;;;;;;11.13;100.00;93937.91;5074248;28;20258;-80
2021/09/04 01:02:18;;;;;;;12.67;7.27;;;;;;;11.13;100.00;93937.91;5074297;28;20206;-79
2021/09/04 01:04:44;;;;;;;10.83;6.57;;;;;;;11.13;100.00;93930.88;5073936;28;20214;-80
2021/09/04 01:07:11;;;;;;;11.13;6.17;;;;;;;11.17;100.00;93933.88;5074112;28;20672;-81
2021/09/04 01:09:39;;;;;;;14.93;7.53;;;;;;;11.39;100.00;93931.88;5074382;28;20195;-78
2021/09/04 01:12:08;;;;;;;12.73;7.40;;;;;;;11.41;100.00;93930.69;5074185;28;20205;-79
2021/09/04 01:14:35;;;;;;;9.13;6.00;;;;;;;11.32;100.00;93931.09;5074170;28;20199;-80
2021/09/04 01:17:02;;;;;;;10.77;6.27;;;;;;;11.30;100.00;93932.06;5074066;28;20657;-80
2021/09/04 01:19:29;;;;;;;13.53;6.77;;;;;;;11.26;100.00;93930.09;5073865;28;20253;-81
2021/09/04 01:22:03;;;;;;;13.07;7.17;;;;;;;11.19;100.00;93930.09;5073779;28;20203;-80
2021/09/04 01:24:32;;;;;;;12.20;6.37;;;;;;;10.99;100.00;93922.22;5073931;28;20231;-78
2021/09/04 01:27:02;;;;;;;19.33;7.17;;;;;;;10.94;100.00;93924.59;5073768;28;20203;-79
2021/09/04 01:29:31;;;;;;;9.60;5.47;;;;;;;10.86;100.00;93925.63;5073829;28;20234;-78
2021/09/04 01:31:58;;;;;;;14.23;6.87;;;;;;;10.84;100.00;93919.78;5073282;28;20244;-77
2021/09/04 01:34:24;;;;;;;13.20;7.43;;;;;;;10.89;100.00;93916.56;5073422;28;20199;-78
2021/09/04 01:36:54;;;;;;;15.10;7.27;;;;;;;10.89;100.00;93916.56;5073474;28;20209;-79
2021/09/04 01:39:22;;;;;;;11.17;6.80;;;;;;;10.92;100.00;93917.00;5073244;28;20203;-78
2021/09/04 01:41:50;;;;;;;11.23;6.90;;;;;;;10.89;100.00;93921.78;5073404;28;20209;-78
2021/09/04 01:44:18;;;;;;;13.10;7.10;;;;;;;11.00;100.00;93913.38;5073269;28;20215;-78
2021/09/04 01:46:44;;;;;;;13.95;7.85;;;;;;;11.00;100.00;93917.78;5069943;28;20454;-78
2021/09/04 01:49:11;;;;;;;11.90;7.17;;;;;;;11.09;100.00;93920.03;5073232;28;20202;-77
2021/09/04 01:51:38;;;;;;;10.77;6.87;;;;;;;11.10;100.00;93919.00;5064654;28;20204;-79
2021/09/04 01:54:04;;;;;;;13.23;7.23;;;;;;;11.04;100.00;93914.59;5053197;28;20206;-78
2021/09/04 01:56:31;;;;;;;12.27;7.10;;;;;;;11.13;100.00;93906.56;5053029;28;20204;-79
2021/09/04 01:58:57;;;;;;;13.53;6.80;;;;;;;11.04;100.00;93916.38;5053212;28;20199;-80
2021/09/04 02:01:25;;;;;;;14.00;7.03;;;;;;;11.04;100.00;93909.38;5071205;28;20234;-80
2021/09/04 02:03:51;;;;;;;14.77;6.67;;;;;;;10.97;100.00;93905.13;5072724;28;20531;-79
2021/09/04 02:06:18;;;;;;;12.30;6.53;;;;;;;10.89;100.00;93906.94;5073233;28;20199;-80
2021/09/04 02:08:44;;;;;;;10.70;6.40;;;;;;;10.93;100.00;93902.91;5073140;28;20596;-80
2021/09/04 02:11:11;;;;;;;12.30;6.83;;;;;;;10.94;100.00;93901.09;5073014;28;20666;-78
2021/09/04 02:13:37;;;;;;;11.60;7.03;;;;;;;11.03;100.00;93901.72;5072928;28;20210;-80
2021/09/04 02:16:05;;;;;;;11.87;6.43;;;;;;;10.95;100.00;93904.53;5072524;28;20202;-80
2021/09/04 02:18:33;;;;;;;11.43;6.53;;;;;;;10.84;100.00;93898.06;5072459;28;20287;-80
2021/09/04 02:21:00;;;;;;;14.00;7.27;;;;;;;10.86;100.00;93906.53;5072755;28;20227;-79
2021/09/04 02:23:26;;;;;;;11.47;7.23;;;;;;;10.79;100.00;93900.47;5072681;28;20199;-79
2021/09/04 02:25:53;;;;;;;13.43;7.40;;;;;;;10.89;100.00;93906.13;5072656;28;20194;-79
2021/09/04 02:28:20;;;;;;;12.23;6.63;;;;;;;10.95;100.00;93894.09;5072838;28;20206;-79
2021/09/04 02:30:46;;;;;;;14.57;6.43;;;;;;;10.89;100.00;93896.50;5072356;28;20202;-79
2021/09/04 02:33:13;;;;;;;11.23;6.30;;;;;;;10.84;100.00;93903.28;5072809;28;20218;-78
2021/09/04 02:35:40;;;;;;;11.50;6.13;;;;;;;10.69;100.00;93895.63;5072647;28;20665;-81
2021/09/04 02:38:07;;;;;;;14.60;6.33;;;;;;;10.63;100.00;93889.41;5072529;28;20199;-81
2021/09/04 02:40:34;;;;;;;14.63;7.47;;;;;;;10.73;100.00;93889.81;5072500;28;20226;-79
2021/09/04 02:43:00;;;;;;;11.77;6.57;;;;;;;10.76;100.00;93885.19;5072131;28;20203;-79
2021/09/04 02:45:27;;;;;;;11.60;6.80;;;;;;;10.78;100.00;93893.66;5072754;28;20705;-79
2021/09/04 02:47:53;;;;;;;20.60;7.20;;;;;;;10.78;100.00;93891.06;5072902;28;20209;-79
2021/09/04 02:50:20;;;;;;;15.80;7.50;;;;;;;10.71;100.00;93888.44;5072742;28;20218;-79
2021/09/04 02:52:48;;;;;;;13.20;7.20;;;;;;;10.65;100.00;93890.00;5072456;28;20266;-79
2021/09/04 02:55:14;;;;;;;12.03;6.77;;;;;;;10.62;100.00;93884.38;5072605;28;20194;-80
2021/09/04 02:57:40;;;;;;;14.57;6.63;;;;;;;10.56;100.00;93885.97;5072207;28;20220;-80
2021/09/04 03:00:08;;;;;;;12.50;7.00;;;;;;;10.55;100.00;93885.16;5072678;28;20233;-80
2021/09/04 03:02:35;;;;;;;12.87;6.93;;;;;;;10.60;100.00;93879.34;5072397;28;20206;-79
2021/09/04 03:05:01;;;;;;;14.27;7.10;;;;;;;10.58;100.00;93883.97;5073156;28;20195;-79
2021/09/04 03:07:28;;;;;;;9.90;6.07;;;;;;;10.51;100.00;93877.94;5076071;28;20677;-80
2021/09/04 03:09:55;;;;;;;12.03;7.17;;;;;;;10.42;100.00;93885.13;5076382;28;20195;-80
2021/09/04 03:12:22;;;;;;;12.07;7.07;;;;;;;10.39;100.00;93880.28;5076221;28;20660;-80
2021/09/04 03:14:49;;;;;;;14.70;7.40;;;;;;;10.38;100.00;93875.31;5076442;28;20203;-79
2021/09/04 03:17:15;;;;;;;15.43;7.10;;;;;;;10.41;100.00;93883.53;5076108;28;20205;-80
2021/09/04 03:19:42;;;;;;;16.52;8.63;;;;;;;10.41;100.00;93882.72;5075072;28;21186;-79
2021/09/04 03:22:08;;;;;;;17.90;7.90;;;;;;;10.41;100.00;93875.72;5076096;28;20230;-79
2021/09/04 03:24:35;;;;;;;15.20;7.97;;;;;;;10.42;100.00;93879.09;5076009;28;20198;-79
2021/09/04 03:27:03;;;;;;;19.37;7.73;;;;;;;10.49;100.00;93872.09;5075688;28;20309;-80
2021/09/04 03:29:30;;;;;;;17.30;8.47;;;;;;;10.58;100.00;93873.53;5076198;28;20222;-82
2021/09/04 03:31:56;;;;;;;15.63;8.13;;;;;;;10.59;100.00;93875.16;5075776;28;20206;-79
2021/09/04 03:34:23;;;;;;;15.50;7.40;;;;;;;10.53;100.00;93876.72;5076030;28;20194;-79
2021/09/04 03:36:49;;;;;;;18.63;8.60;;;;;;;10.47;100.00;93872.28;5075743;28;20202;-80
2021/09/04 03:39:16;;;;;;;14.23;8.00;;;;;;;10.43;100.00;93875.50;5075615;28;20198;-82
2021/09/04 03:41:42;;;;;;;14.30;8.30;;;;;;;10.42;100.00;93871.28;5075374;28;20234;-81
2021/09/04 03:44:10;;;;;;;20.17;8.73;;;;;;;10.50;100.00;93871.91;5074404;28;20234;-81
2021/09/04 03:46:36;;;;;;;18.70;8.23;;;;;;;10.52;100.00;93869.09;5075579;28;20237;-80
2021/09/04 03:49:03;;;;;;;14.57;8.00;;;;;;;10.47;100.00;93867.06;5075552;28;20692;-80
2021/09/04 03:51:29;;;;;;;15.37;7.83;;;;;;;10.44;100.00;93864.88;5075389;28;20195;-80
2021/09/04 03:53:56;;;;;;;15.63;8.47;;;;;;;10.46;100.00;93864.66;5075324;28;20678;-80
2021/09/04 03:56:23;;;;;;;22.37;8.70;;;;;;;10.47;100.00;93864.47;5075714;28;20207;-80
2021/09/04 03:58:52;;;;;;;14.87;8.57;;;;;;;10.49;100.00;93866.88;5075480;28;20203;-81
2021/09/04 04:01:20;;;;;;;15.57;8.27;;;;;;;10.54;100.00;93861.88;5075020;28;20231;-80
2021/09/04 04:03:47;;;;;;;15.23;8.30;;;;;;;10.48;100.00;93867.91;5075359;28;20293;-80
2021/09/04 04:06:13;;;;;;;14.57;9.00;;;;;;;10.42;100.00;93868.66;5074886;28;20446;-80
2021/09/04 04:08:40;;;;;;;13.00;8.20;;;;;;;10.47;100.00;93866.28;5074767;28;20600;-79
2021/09/04 04:11:09;;;;;;;17.53;8.63;;;;;;;10.48;100.00;93873.13;5075150;28;20681;-79
2021/09/04 04:13:38;;;;;;;20.20;8.33;;;;;;;10.43;100.00;93865.88;5075335;28;20198;-79
2021/09/04 04:16:05;;;;;;;16.33;9.23;;;;;;;10.43;100.00;93862.47;5074800;28;20641;-80
2021/09/04 04:18:35;;;;;;;16.60;8.00;;;;;;;10.32;100.00;93867.22;5074980;28;20573;-79
2021/09/04 04:21:05;;;;;;;17.67;8.23;;;;;;;10.31;100.00;93868.22;5075073;28;20226;-80
2021/09/04 04:23:31;;;;;;;14.20;7.50;;;;;;;10.14;100.00;93877.38;5074869;28;20557;-81
2021/09/04 04:26:03;;;;;;;12.23;6.77;;;;;;;9.96;100.00;93864.88;5074865;28;20203;-79
2021/09/04 04:28:32;;;;;;;15.23;8.17;;;;;;;10.12;100.00;93871.56;5074852;28;20684;-79
2021/09/04 04:31:07;;;;;;;16.10;8.77;;;;;;;10.25;100.00;93865.59;5074996;28;20206;-79
2021/09/04 04:33:35;;;;;;;17.47;8.63;;;;;;;10.26;100.00;93865.41;5074747;28;20206;-80
2021/09/04 04:36:01;;;;;;;17.67;8.17;;;;;;;10.29;100.00;93870.22;5074503;28;20675;-79
2021/09/04 04:38:30;;;;;;;16.17;8.20;;;;;;;10.26;100.00;93865.41;5074787;28;20210;-80
2021/09/04 04:40:57;;;;;;;19.87;9.73;;;;;;;10.41;100.00;93872.28;5074746;28;20230;-78
2021/09/04 04:43:28;;;;;;;19.73;8.57;;;;;;;10.32;100.00;93869.03;5074297;28;20210;-80
2021/09/04 04:45:56;;;;;;;17.90;8.87;;;;;;;10.41;100.00;93864.44;5074062;28;20309;-79
2021/09/04 04:48:26;;;;;;;18.03;8.67;;;;;;;10.46;100.00;93862.03;5074485;28;20307;-79
2021/09/04 04:50:56;;;;;;;15.37;8.87;;;;;;;10.38;100.00;93862.25;5074517;28;20199;-80
2021/09/04 04:53:22;;;;;;;14.83;7.43;;;;;;;10.32;100.00;93869.03;5074319;28;20256;-80
2021/09/04 04:55:50;;;;;;;15.27;7.60;;;;;;;10.18;100.00;93866.38;5074004;28;20558;-81
2021/09/04 04:58:17;;;;;;;13.17;7.63;;;;;;;10.17;100.00;93864.78;5074455;28;20229;-80
2021/09/04 05:00:45;;;;;;;12.07;7.17;;;;;;;10.06;100.00;93869.72;5074001;28;20715;-80
2021/09/04 05:03:11;;;;;;;15.53;8.47;;;;;;;10.13;100.00;93870.56;5074161;28;20206;-81
2021/09/04 05:05:38;;;;;;;15.33;8.33;;;;;;;10.13;100.00;93878.41;5073825;28;20203;-80
2021/09/04 05:08:06;;;;;;;15.77;8.00;;;;;;;10.03;100.00;93881.34;5074152;28;20293;-80
2021/09/04 05:10:33;;;;;;;18.30;8.53;;;;;;;10.13;100.00;93883.59;5073726;28;20202;-80
2021/09/04 05:13:05;;;;;;;15.93;8.40;;;;;;;10.12;100.00;93885.38;5073896;28;20240;-79
2021/09/04 05:15:35;;;;;;;17.67;8.43;;;;;;;10.21;100.00;93880.84;5073934;28;20203;-79
2021/09/04 05:18:03;;;;;;;15.07;8.77;;;;;;;10.25;100.00;93884.66;5073947;28;20201;-79
2021/09/04 05:20:29;;;;;;;15.53;8.37;;;;;;;10.22;100.00;93879.81;5073467;28;20205;-79
2021/09/04 05:22:58;;;;;;;14.80;8.47;;;;;;;10.22;100.00;93882.44;5073706;28;20198;-80
2021/09/04 05:25:28;;;;;;;13.03;7.00;;;;;;;10.15;100.00;93884.22;5073709;28;20657;-80
2021/09/04 05:27:56;;;;;;;17.42;10.43;;;;;;;10.31;100.00;93889.09;5072163;28;20504;-80
2021/09/04 05:30:24;;;;;;;17.63;8.90;;;;;;;10.36;100.00;93894.56;5073494;28;20222;-80
2021/09/04 05:32:53;;;;;;;18.53;8.90;;;;;;;10.45;100.00;93892.56;5073753;28;20207;-80
2021/09/04 05:35:21;;;;;;;17.70;8.60;;;;;;;10.43;100.00;93894.56;5073373;28;20304;-80
2021/09/04 05:37:48;;;;;;;17.10;8.70;;;;;;;10.40;100.00;93876.69;5073443;28;20202;-81
2021/09/04 05:40:14;;;;;;;15.33;8.07;;;;;;;10.43;100.00;93881.53;5073161;28;20293;-80
2021/09/04 05:42:46;;;;;;;17.93;8.57;;;;;;;10.48;100.00;93883.56;5073134;28;20317;-80
2021/09/04 05:45:13;;;;;;;17.23;8.33;;;;;;;10.58;100.00;93893.63;5072881;28;20235;-81
2021/09/04 05:47:43;;;;;;;16.60;8.67;;;;;;;10.58;100.00;93883.97;5072662;28;20209;-81
2021/09/04 05:50:10;;;;;;;15.17;8.73;;;;;;;10.70;100.00;93885.00;5073414;28;20201;-81
2021/09/04 05:52:42;;;;;;;15.47;8.53;;;;;;;10.81;100.00;93883.63;5073021;28;20226;-80
2021/09/04 05:55:11;;;;;;;16.30;8.33;;;;;;;10.86;100.00;93883.03;5073097;28;20207;-79
2021/09/04 05:57:37;;;;;;;17.43;8.53;;;;;;;10.93;100.00;93889.06;5073383;28;20199;-79
2021/09/04 06:00:10;;;;;;;13.80;7.97;;;;;;;10.96;100.00;93890.44;5073251;28;20198;-80
2021/09/04 06:02:36;;;;;;;14.80;8.07;;;;;;;10.98;100.00;93886.66;5072896;28;20581;-80
2021/09/04 06:05:09;;;;;;;14.93;7.00;;;;;;;10.99;100.00;93895.28;5072978;28;20199;-79
2021/09/04 06:07:52;;;;;;;16.03;8.23;;;;;;;11.04;100.00;93892.88;5073151;28;20205;-80
2021/09/04 06:10:19;;;;;;;13.73;8.00;;;;;;;11.10;100.00;93892.88;5073135;28;20209;-81
2021/09/04 06:12:45;;;;;;;16.23;9.13;;;;;;;11.19;100.00;93892.66;5073053;28;20206;-81
2021/09/04 06:15:13;;;;;;;15.10;8.67;;;;;;;11.27;100.00;93888.06;5073139;28;20198;-80
2021/09/04 06:17:40;;;;;;;15.37;8.10;;;;;;;11.36;100.00;93890.44;5072523;28;20203;-80
2021/09/04 06:20:08;;;;;;;15.57;8.23;;;;;;;11.44;100.00;93888.47;5072868;28;20660;-79
2021/09/04 06:22:34;;;;;;;15.80;9.07;;;;;;;11.58;100.00;93893.66;5072834;28;20233;-79
2021/09/04 06:25:01;;;;;;;16.33;9.57;;;;;;;11.70;100.00;93886.78;5073074;28;20202;-79
2021/09/04 06:27:27;;;;;;;18.97;9.67;;;;;;;11.78;100.00;93894.44;5072895;28;20194;-79
2021/09/04 06:29:54;;;;;;;15.10;9.00;;;;;;;11.90;100.00;93891.19;5072670;28;20301;-80
2021/09/04 06:32:22;;;;;;;16.23;9.27;;;;;;;12.00;100.00;93889.75;5072712;28;20248;-80
2021/09/04 06:34:48;;;;;;;21.73;8.83;;;;;;;12.05;100.00;93893.59;5073053;28;20203;-79
2021/09/04 06:37:15;;;;;;;18.17;9.93;;;;;;;12.20;100.00;93894.94;5072794;28;20653;-80
2021/09/04 06:39:41;;;;;;;15.98;8.70;;;;;;;12.36;100.00;93895.50;5072642;28;20207;-79
2021/09/04 06:42:08;;;;;;;20.75;10.07;;;;;;;12.49;100.00;93894.59;5077067;28;20239;-79
2021/09/04 06:44:34;;;;;;;17.27;8.80;;;;;;;12.62;100.00;93894.53;5076874;28;20595;-79
2021/09/04 06:47:01;;;;;;;14.90;9.02;;;;;;;12.78;100.00;93891.44;5075917;28;20202;-79
2021/09/04 06:49:28;;;;;;;14.02;8.20;;;;;;;12.98;100.00;93894.94;5077033;28;20561;-79
2021/09/04 06:51:55;;;;;;;13.85;8.05;;;;;;;13.11;100.00;93892.22;5076805;28;20581;-79
2021/09/04 06:54:24;;;;;;;15.55;7.60;;;;;;;13.32;100.00;93889.28;5076718;28;20584;-78
2021/09/04 06:56:50;;;;;;;13.77;8.35;;;;;;;13.58;100.00;93882.19;5076428;28;20580;-79
2021/09/04 06:59:17;;;;;;;12.00;7.75;;;;;;;13.77;100.00;93879.59;5076768;28;20198;-81
2021/09/04 07:01:44;;;;;;;14.55;7.30;;;;;;;13.94;100.00;93888.50;5076878;28;20222;-79
2021/09/04 07:04:10;;;;;;;11.38;7.05;;;;;;;14.21;100.00;93888.22;5076495;28;20668;-78
2021/09/04 07:06:38;;;;;;;10.77;6.95;;;;;;;14.38;100.00;93886.56;5076350;28;20640;-79
2021/09/04 07:09:05;;;;;;;13.00;7.20;;;;;;;14.53;100.00;93888.03;5076117;28;20202;-78
2021/09/04 07:11:31;;;;;;;11.30;6.63;;;;;;;14.71;100.00;93887.22;5076276;28;20570;-78
2021/09/04 07:13:58;;;;;;;12.07;6.50;;;;;;;14.89;100.00;93887.16;5076267;28;20199;-78
2021/09/04 07:16:24;;;;;;;8.60;6.00;;;;;;;14.97;100.00;93886.03;5076088;28;20199;-78
2021/09/04 07:18:51;;;;;;;12.32;6.40;;;;;;;15.23;100.00;93894.56;5076365;28;20225;-78
2021/09/04 07:21:17;;;;;;;12.15;6.50;;;;;;;15.38;100.00;93889.66;5076048;28;20195;-81
2021/09/04 07:23:45;;;;;;;9.27;5.88;;;;;;;15.50;100.00;93884.41;5075920;28;20205;-80
2021/09/04 07:26:11;;;;;;;9.05;5.43;;;;;;;15.68;100.00;93896.66;5076055;28;20210;-80
2021/09/04 07:28:38;;;;;;;10.38;5.70;;;;;;;15.89;100.00;93893.47;5075983;28;20210;-81
2021/09/04 07:31:04;;;;;;;10.38;5.82;;;;;;;16.05;100.00;93894.63;5075893;28;20681;-81
2021/09/04 07:33:31;;;;;;;8.23;4.95;;;;;;;16.27;100.00;93900.06;5075776;28;20245;-80
2021/09/04 07:35:57;;;;;;;8.13;5.15;;;;;;;16.45;100.00;93893.03;5076035;28;20199;-78
2021/09/04 07:38:24;;;;;;;7.82;5.05;;;;;;;16.56;100.00;93894.03;5075869;28;20295;-79
2021/09/04 07:40:52;;;;;;;9.90;5.22;;;;;;;16.64;100.00;93902.38;5075772;28;20252;-79
2021/09/04 07:43:18;;;;;;;9.15;6.10;;;;;;;16.86;100.00;93903.59;5076172;28;20211;-82
2021/09/04 07:45:45;;;;;;;8.95;4.90;;;;;;;17.01;100.00;93901.22;5061709;28;20234;-80
2021/09/04 07:48:11;;;;;;;8.80;5.45;;;;;;;17.10;100.00;93899.81;5055767;28;20227;-80
2021/09/04 07:50:38;;;;;;;8.68;5.07;;;;;;;17.24;100.00;93895.03;5074992;28;20584;-81
2021/09/04 07:53:04;;;;;;;8.30;4.93;;;;;;;17.37;100.00;93901.84;5075630;28;20542;-80
2021/09/04 07:55:31;;;;;;;8.27;4.88;;;;;;;17.49;100.00;93899.13;5075205;28;20209;-81
2021/09/04 07:57:58;;;;;;;8.70;5.40;;;;;;;17.64;100.00;93899.34;5075414;28;20198;-78
2021/09/04 08:00:26;;;;;;;15.52;6.25;;;;;;;17.71;100.00;93899.97;5075542;28;20195;-79
2021/09/04 08:02:53;;;;;;;10.35;5.03;;;;;;;17.78;100.00;93899.00;5075417;28;20265;-80
2021/09/04 08:05:19;;;;;;;8.52;5.45;;;;;;;17.96;100.00;93906.69;5064845;28;20227;-82
2021/09/04 08:07:46;;;;;;;9.02;5.50;;;;;;;17.98;100.00;93901.97;5055180;28;20208;-80
2021/09/04 08:10:12;;;;;;;8.60;4.93;;;;;;;18.09;100.00;93901.06;5055203;28;20543;-79
2021/09/04 08:12:39;;;;;;;8.93;5.00;;;;;;;18.18;100.00;93905.94;5055361;28;20207;-78
2021/09/04 08:15:08;;;;;;;6.97;4.78;;;;;;;18.30;100.00;93909.25;5055315;28;20199;-79
2021/09/04 08:17:35;;;;;;;8.45;4.97;;;;;;;18.43;100.00;93906.25;5055221;28;20301;-78
2021/09/04 08:20:02;;;;;;;8.65;4.93;;;;;;;18.46;100.00;93910.25;5055119;28;20609;-79
2021/09/04 08:22:29;;;;;;;8.95;5.03;;;;;;;18.50;96.71;93908.69;5055023;28;20235;-79
2021/09/04 08:24:55;;;;;;;8.32;5.38;;;;;;;18.68;99.90;93907.59;5054845;28;20203;-79
2021/09/04 08:27:22;;;;;;;8.95;5.00;;;;;;;18.83;99.74;93902.50;5055096;28;20207;-79
2021/09/04 08:29:48;;;;;;;10.07;4.60;;;;;;;18.88;92.11;93911.56;5055024;28;20204;-78
2021/09/04 08:32:16;;;;;;;8.75;4.93;;;;;;;19.02;95.60;93910.13;5054848;28;20199;-78
2021/09/04 08:34:43;;;;;;;8.30;4.60;;;;;;;19.08;92.40;93911.75;5054672;28;20200;-78
2021/09/04 08:37:09;;;;;;;7.82;4.68;;;;;;;19.16;90.38;93905.22;5054509;28;20223;-78
2021/09/04 08:39:35;;;;;;;7.32;4.50;;;;;;;19.22;89.38;93917.47;5072222;28;20198;-79
2021/09/04 08:42:02;;;;;;;11.00;5.07;;;;;;;19.19;83.62;93915.31;5074518;28;20219;-80
2021/09/04 08:44:28;;;;;;;9.95;5.07;;;;;;;19.12;82.66;93919.97;5074711;28;20199;-78
2021/09/04 08:46:55;;;;;;;7.13;4.10;;;;;;;19.22;83.72;93912.16;5074381;28;20232;-78
2021/09/04 08:49:23;;;;;;;8.10;4.95;;;;;;;19.36;88.16;93907.25;5074474;28;20206;-78
2021/09/04 08:51:49;;;;;;;10.27;4.88;;;;;;;19.54;91.61;93917.47;5074222;28;20194;-78
2021/09/04 08:54:16;;;;;;;10.27;4.88;;;;;;;19.47;85.39;93914.22;5074058;28;20202;-79
2021/09/04 08:56:43;;;;;;;9.60;5.25;;;;;;;19.47;83.13;93913.41;5074373;28;20515;-79
2021/09/04 08:59:09;;;;;;;10.02;4.82;;;;;;;19.49;82.19;93912.13;5074279;28;20688;-80
2021/09/04 09:01:44;;;;;;;7.20;4.65;;;;;;;19.44;82.67;93917.38;5074272;28;20198;-78
2021/09/04 09:04:15;;;;;;;10.57;5.03;;;;;;;19.47;84.37;93914.22;5073417;28;20599;-79
2021/09/04 09:06:43;;;;;;;8.75;4.93;;;;;;;19.48;83.20;93920.31;5074040;28;20669;-79
2021/09/04 09:09:18;;;;;;;8.60;5.00;;;;;;;19.57;86.60;93919.63;5074053;28;20230;-79
2021/09/04 09:11:45;;;;;;;10.98;5.18;;;;;;;19.66;82.26;93921.81;5074167;28;20209;-77
2021/09/04 09:14:11;;;;;;;9.57;5.00;;;;;;;19.62;80.10;93921.50;5073899;28;20206;-77
2021/09/04 09:16:49;;;;;;;7.57;4.78;;;;;;;19.59;84.13;93920.16;5073996;28;20650;-77
2021/09/04 09:19:16;;;;;;;8.95;5.40;;;;;;;19.55;82.43;93911.13;5073999;28;20252;-76
2021/09/04 09:21:43;;;;;;;9.88;4.97;;;;;;;19.70;82.70;93925.53;5073690;28;20665;-77
2021/09/04 09:24:12;;;;;;;7.57;4.85;;;;;;;19.66;82.47;93922.59;5073857;28;20199;-77
2021/09/04 09:26:47;;;;;;;10.35;5.30;;;;;;;19.79;81.61;93924.03;5073731;28;20195;-77
2021/09/04 09:29:18;;;;;;;8.00;4.70;;;;;;;19.93;81.69;93927.88;5073793;28;20209;-79
2021/09/04 09:31:45;;;;;;;8.98;5.00;;;;;;;20.03;79.68;93921.03;5073634;28;20207;-79
2021/09/04 09:34:13;;;;;;;15.57;5.70;;;;;;;20.00;80.75;93921.53;5073686;28;20331;-78
2021/09/04 09:36:56;;;;;;;8.52;4.65;;;;;;;19.99;79.65;93928.69;5073746;28;20561;-77
2021/09/04 09:39:27;;;;;;;8.50;4.80;;;;;;;20.00;77.68;93932.13;5073408;28;20206;-79
2021/09/04 09:41:54;;;;;;;7.43;4.65;;;;;;;19.84;81.08;93921.44;5073378;28;20238;-77
2021/09/04 09:44:22;;;;;;;7.00;4.55;;;;;;;19.68;83.92;93930.28;5073463;28;20221;-78
2021/09/04 09:46:51;;;;;;;7.05;4.78;;;;;;;19.44;83.62;93919.25;5073139;28;20241;-78
2021/09/04 09:49:17;;;;;;;8.60;4.15;;;;;;;19.41;84.43;93917.88;5073420;28;20619;-79
2021/09/04 09:51:44;;;;;;;6.30;3.85;;;;;;;19.21;92.46;93910.56;5073422;28;20300;-77
2021/09/04 09:54:14;;;;;;;9.07;4.50;;;;;;;19.09;92.81;93913.34;5073234;28;20199;-78
2021/09/04 09:56:41;;;;;;;8.65;5.05;;;;;;;19.22;91.40;93920.91;5073145;28;20195;-77
2021/09/04 09:59:12;;;;;;;12.88;6.07;;;;;;;19.66;92.76;93921.81;5073322;28;20239;-77
2021/09/04 10:01:41;;;;;;;7.85;4.75;;;;;;;20.06;89.17;93915.22;5073316;28;20226;-77
2021/09/04 10:04:10;;;;;;;8.15;4.72;;;;;;;20.25;83.11;93918.22;5073177;28;20238;-77
2021/09/04 10:06:37;;;;;;;8.75;4.60;;;;;;;20.17;84.81;93911.56;5073148;28;20648;-77
2021/09/04 10:09:04;;;;;;;8.35;4.82;;;;;;;20.33;84.14;93909.78;5073057;28;20241;-77
2021/09/04 10:11:36;;;;;;;11.20;4.90;;;;;;;20.17;85.05;93908.91;5073139;28;20225;-80
2021/09/04 10:14:02;;;;;;;7.47;4.93;;;;;;;20.42;87.31;93907.47;5072873;28;20530;-78
2021/09/04 10:16:29;;;;;;;11.13;5.10;;;;;;;20.40;82.77;93907.72;5072958;28;20201;-79
2021/09/04 10:18:56;;;;;;;8.35;4.47;;;;;;;20.37;85.93;93900.28;5073335;28;20214;-78
2021/09/04 10:21:26;;;;;;;10.70;5.00;;;;;;;20.50;83.63;93899.81;5073809;28;20202;-77
2021/09/04 10:23:55;;;;;;;6.47;4.68;;;;;;;20.46;86.56;93896.06;5073891;28;20226;-78
2021/09/04 10:26:27;;;;;;;15.75;5.05;;;;;;;20.39;83.26;93897.38;5073172;28;20653;-78
2021/09/04 10:29:02;;;;;;;8.88;5.28;;;;;;;20.54;82.88;93900.06;5073005;28;20249;-78
2021/09/04 10:31:55;;;;;;;10.98;4.97;;;;;;;20.70;81.61;93893.00;5072477;28;20202;-78
2021/09/04 10:34:27;;;;;;;9.82;5.00;;;;;;;20.90;84.57;93892.28;5073005;28;20206;-79
2021/09/04 10:36:57;;;;;;;6.55;4.38;;;;;;;21.15;84.29;93890.72;5072939;28;20202;-79
2021/09/04 10:39:23;;;;;;;10.52;5.50;;;;;;;21.08;82.09;93885.66;5072979;28;20198;-79
2021/09/04 10:41:50;;;;;;;7.68;5.07;;;;;;;21.06;81.75;93891.22;5072798;28;20203;-80
2021/09/04 10:44:23;;;;;;;9.40;5.20;;;;;;;21.00;79.60;93880.84;5072534;28;20231;-80
2021/09/04 10:46:49;;;;;;;9.25;4.50;;;;;;;20.83;79.66;93891.69;5072188;28;20701;-80
2021/09/04 10:49:39;;;;;;;7.55;4.57;;;;;;;20.93;81.12;93886.41;5072770;28;20206;-81
2021/09/04 10:52:06;;;;;;;8.35;3.95;;;;;;;21.13;82.86;93890.19;5072744;28;20233;-79
2021/09/04 10:54:40;;;;;;;6.72;4.85;;;;;;;21.18;81.04;93882.22;5072585;28;20202;-77
2021/09/04 10:57:14;;;;;;;7.35;4.70;;;;;;;21.33;79.59;93889.41;5072475;28;20202;-78
2021/09/04 11:00:19;;;;;;;9.90;5.07;;;;;;;21.20;78.66;93890.72;5072677;28;20225;-76
2021/09/04 11:02:51;;;;;;;8.57;4.47;;;;;;;21.47;82.78;93889.66;5072622;28;20249;-77
2021/09/04 11:05:28;;;;;;;8.82;4.25;;;;;;;21.55;75.78;93889.16;5072329;28;20214;-77
2021/09/04 11:08:01;;;;;;;7.25;3.63;;;;;;;21.49;73.45;93890.25;5072509;28;20207;-77
2021/09/04 11:10:29;;;;;;;10.88;4.55;;;;;;;21.50;71.78;93889.16;5072360;28;20203;-79
2021/09/04 11:13:32;;;;;;;17.05;4.47;;;;;;;21.57;76.89;93889.72;5072287;28;20202;-77
2021/09/04 11:16:27;;;;;;;6.75;4.22;;;;;;;21.68;77.35;93891.28;5069791;28;20260;-78
2021/09/04 11:18:55;;;;;;;5.65;3.75;;;;;;;21.80;74.80;93889.16;5072498;28;20207;-79
2021/09/04 11:21:21;;;;;;;11.45;4.70;;;;;;;21.66;73.44;93882.00;5072340;28;20206;-78
2021/09/04 11:23:49;;;;;;;6.55;3.85;;;;;;;21.65;73.18;93881.22;5072252;28;20230;-78
2021/09/04 11:26:15;;;;;;;6.22;3.88;;;;;;;21.87;73.00;93888.91;5073043;28;20206;-78